Time;durP1;ratioP1;P1;durP2;ratioP2;P2;SDS_P1;SDS_P2;PMS_P1;PMS_P2;Temp;Humidity;BMP_temperature;BMP_pressure;BME280_temperature;BME280_humidity;BME280_pressure;Samples;Min_cycle;Max_cycle;Signal;HPM_P1;HPM_P2
2024/04/13 00:02:18;;;;;;;;;;;;;;;16.24;58.03;101655.13;5350419;26;1275;-56
2024/04/13 00:04:44;;;;;;;;;;;;;;;17.55;57.39;101656.59;5350670;26;1192;-55
2024/04/13 00:07:09;;;;;;;;;;;;;;;17.12;57.62;101652.81;5350677;26;1274;-56
2024/04/13 00:09:35;;;;;;;;;;;;;;;16.65;58.03;101657.66;5350261;26;1301;-56
2024/04/13 00:12:00;;;;;;;;;;;;;;;16.43;57.77;101660.34;5350623;26;1163;-55
2024/04/13 00:14:26;;;;;;;;;;;;;;;16.23;57.26;101653.44;5350413;26;1294;-55
2024/04/13 00:16:51;;;;;;;;;;;;;;;16.29;57.82;101661.78;5348692;26;1864;-55
2024/04/13 00:19:17;;;;;;;;;;;;;;;17.59;57.29;101666.00;5350194;26;1133;-56
2024/04/13 00:21:42;;;;;;;;;;;;;;;17.08;57.69;101661.56;5350262;26;1268;-55
2024/04/13 00:24:10;;;;;;;;;;;;;;;16.65;57.69;101654.91;5350134;26;1284;-55
2024/04/13 00:26:35;;;;;;;;;;;;;;;16.39;57.66;101643.53;5350157;26;1168;-56
2024/04/13 00:29:05;;;;;;;;;;;;;;;16.20;57.50;101656.69;5350270;26;1192;-55
2024/04/13 00:31:31;;;;;;;;;;;;;;;16.16;57.18;101651.94;5350290;26;1278;-54
2024/04/13 00:33:56;;;;;;;;;;;;;;;16.20;57.89;101650.34;5349791;26;1184;-54
2024/04/13 00:36:22;;;;;;;;;;;;;;;17.52;57.24;101657.13;5350550;26;1255;-56
2024/04/13 00:38:47;;;;;;;;;;;;;;;17.15;57.52;101644.03;5350205;26;1842;-56
2024/04/13 00:41:13;;;;;;;;;;;;;;;16.59;57.90;101639.41;5350198;26;1160;-56
2024/04/13 00:43:38;;;;;;;;;;;;;;;16.40;57.40;101650.69;5349774;26;1168;-56
2024/04/13 00:46:07;;;;;;;;;;;;;;;16.25;57.42;101659.50;5350160;26;1248;-54
2024/04/13 00:48:36;;;;;;;;;;;;;;;16.08;57.33;101648.53;5320206;26;1274;-55
2024/04/13 00:51:04;;;;;;;;;;;;;;;16.71;58.50;101658.56;5350279;26;1239;-55
2024/04/13 00:53:29;;;;;;;;;;;;;;;17.90;56.38;101644.28;5327552;26;1164;-55
2024/04/13 00:55:55;;;;;;;;;;;;;;;17.11;57.54;101649.25;5318892;26;1283;-56
2024/04/13 00:58:26;;;;;;;;;;;;;;;16.68;57.83;101646.16;5349662;26;1837;-55
2024/04/13 01:00:51;;;;;;;;;;;;;;;16.50;57.59;101639.03;5350121;26;1354;-55
2024/04/13 01:03:17;;;;;;;;;;;;;;;16.33;57.38;101647.28;5349679;26;1160;-54
2024/04/13 01:05:43;;;;;;;;;;;;;;;16.17;57.29;101639.88;5349494;26;1210;-54
2024/04/13 01:08:09;;;;;;;;;;;;;;;16.48;58.11;101646.69;5319403;26;1172;-54
2024/04/13 01:10:35;;;;;;;;;;;;;;;17.75;56.86;101640.31;5349274;26;1173;-54
2024/04/13 01:13:00;;;;;;;;;;;;;;;17.06;57.52;101641.75;5349720;26;1227;-55
2024/04/13 01:15:27;;;;;;;;;;;;;;;16.60;57.79;101641.09;5319021;26;1298;-55
2024/04/13 01:17:53;;;;;;;;;;;;;;;16.45;57.45;101632.63;5349598;26;1830;-54
2024/04/13 01:20:19;;;;;;;;;;;;;;;16.30;57.33;101634.06;5349474;26;1188;-56
2024/04/13 01:22:45;;;;;;;;;;;;;;;16.14;57.14;101635.72;5349280;26;1065;-55
2024/04/13 01:25:10;;;;;;;;;;;;;;;17.22;58.05;101641.91;5349060;26;1561;-56
2024/04/13 01:27:36;;;;;;;;;;;;;;;17.63;56.66;101642.38;5319626;26;1277;-56
2024/04/13 01:30:02;;;;;;;;;;;;;;;16.82;57.97;101645.81;5352410;26;1216;-57
2024/04/13 01:32:28;;;;;;;;;;;;;;;16.56;57.76;101632.53;5352845;26;1231;-56
2024/04/13 01:34:53;;;;;;;;;;;;;;;16.45;57.34;101629.88;5352284;26;1168;-54
2024/04/13 01:37:19;;;;;;;;;;;;;;;16.29;57.10;101626.09;5352551;26;1838;-52
2024/04/13 01:39:45;;;;;;;;;;;;;;;16.13;56.92;101619.50;5352558;26;1267;-53
2024/04/13 01:42:11;;;;;;;;;;;;;;;16.05;56.99;101627.09;5352767;26;1228;-55
2024/04/13 01:44:36;;;;;;;;;;;;;;;17.15;57.98;101633.88;5352850;26;1221;-54
2024/04/13 01:47:01;;;;;;;;;;;;;;;17.52;57.00;101616.69;5351740;26;1059;-54
2024/04/13 01:49:27;;;;;;;;;;;;;;;16.80;57.87;101626.81;5352524;26;1286;-54
2024/04/13 01:51:53;;;;;;;;;;;;;;;16.50;57.76;101619.00;5352309;26;1331;-54
2024/04/13 01:54:18;;;;;;;;;;;;;;;16.26;57.65;101610.94;5352223;26;1168;-54
2024/04/13 01:56:43;;;;;;;;;;;;;;;16.13;57.46;101616.78;5352221;26;1833;-52
2024/04/13 01:59:09;;;;;;;;;;;;;;;16.01;57.36;101625.91;5352307;26;1192;-54
2024/04/13 02:01:34;;;;;;;;;;;;;;;17.22;57.94;101628.19;5329416;26;1156;-54
2024/04/13 02:04:00;;;;;;;;;;;;;;;17.47;57.05;101621.31;5352283;26;1165;-53
2024/04/13 02:06:26;;;;;;;;;;;;;;;16.80;57.91;101631.47;5351617;26;1188;-54
2024/04/13 02:08:51;;;;;;;;;;;;;;;16.47;57.72;101633.22;5352554;26;1343;-54
2024/04/13 02:11:17;;;;;;;;;;;;;;;16.30;57.67;101636.81;5351075;26;1192;-55
2024/04/13 02:13:42;;;;;;;;;;;;;;;16.22;57.24;101639.97;5352402;26;1352;-54
2024/04/13 02:16:08;;;;;;;;;;;;;;;16.13;56.98;101633.22;5352337;26;1208;-55
2024/04/13 02:18:34;;;;;;;;;;;;;;;16.00;56.74;101627.00;5352004;26;1825;-54
2024/04/13 02:20:59;;;;;;;;;;;;;;;17.20;58.04;101627.63;5352270;26;1266;-55
2024/04/13 02:23:25;;;;;;;;;;;;;;;17.38;57.27;101627.28;5351981;26;1256;-55
2024/04/13 02:25:50;;;;;;;;;;;;;;;16.78;57.99;101615.25;5351953;26;1267;-55
2024/04/13 02:28:16;;;;;;;;;;;;;;;16.46;57.68;101618.66;5351789;26;1235;-55
2024/04/13 02:30:41;;;;;;;;;;;;;;;16.26;57.38;101616.44;5352247;26;1223;-54
2024/04/13 02:33:07;;;;;;;;;;;;;;;16.60;58.47;101616.38;5352564;26;1243;-54
2024/04/13 02:35:33;;;;;;;;;;;;;;;17.88;56.52;101613.44;5351814;26;1330;-54
2024/04/13 02:37:59;;;;;;;;;;;;;;;17.03;57.66;101620.28;5351925;26;1826;-54
2024/04/13 02:40:24;;;;;;;;;;;;;;;16.67;57.72;101624.44;5350000;26;1262;-55
2024/04/13 02:42:50;;;;;;;;;;;;;;;16.44;57.43;101629.06;5352055;26;1412;-55
2024/04/13 02:45:17;;;;;;;;;;;;;;;16.22;57.34;101620.75;5351920;26;1378;-54
2024/04/13 02:47:42;;;;;;;;;;;;;;;16.18;57.14;101625.09;5351130;26;1117;-55
2024/04/13 02:50:08;;;;;;;;;;;;;;;17.36;57.77;101623.13;5351874;26;1274;-55
2024/04/13 02:52:34;;;;;;;;;;;;;;;17.26;57.32;101623.84;5351566;26;1169;-54
2024/04/13 02:55:00;;;;;;;;;;;;;;;16.68;57.73;101621.44;5351288;26;1207;-56
2024/04/13 02:57:26;;;;;;;;;;;;;;;16.49;57.48;101620.88;5351739;26;1859;-55
2024/04/13 02:59:51;;;;;;;;;;;;;;;16.37;57.18;101626.50;5350877;26;1279;-55
2024/04/13 03:02:17;;;;;;;;;;;;;;;16.19;57.03;101622.09;5351261;26;1204;-55
2024/04/13 03:04:43;;;;;;;;;;;;;;;16.11;56.93;101616.19;5351557;26;1303;-55
2024/04/13 03:07:08;;;;;;;;;;;;;;;16.01;56.78;101625.09;5351658;26;1279;-55
2024/04/13 03:09:34;;;;;;;;;;;;;;;17.18;57.85;101627.88;5351127;26;1259;-54
2024/04/13 03:11:59;;;;;;;;;;;;;;;17.61;56.67;101619.78;5351375;26;1055;-55
2024/04/13 03:14:26;;;;;;;;;;;;;;;16.75;58.03;101635.81;5351066;26;1274;-55
2024/04/13 03:16:52;;;;;;;;;;;;;;;16.50;57.72;101629.97;5351241;26;1829;-54
2024/04/13 03:19:18;;;;;;;;;;;;;;;16.27;57.58;101620.84;5350792;26;1187;-57
2024/04/13 03:21:46;;;;;;;;;;;;;;;16.16;57.28;101629.97;5351154;26;1363;-57
2024/04/13 03:24:12;;;;;;;;;;;;;;;16.15;56.88;101631.09;5350967;26;1157;-57
2024/04/13 03:26:37;;;;;;;;;;;;;;;16.18;58.08;101620.41;5351432;26;1282;-57
2024/04/13 03:29:03;;;;;;;;;;;;;;;17.55;57.32;101620.84;5350988;26;1248;-58
2024/04/13 03:31:28;;;;;;;;;;;;;;;17.08;57.63;101623.09;5351467;26;1263;-57
2024/04/13 03:33:56;;;;;;;;;;;;;;;16.61;57.67;101612.56;5351020;26;1223;-58
2024/04/13 03:36:21;;;;;;;;;;;;;;;16.39;57.68;101615.25;5350840;26;1065;-58
2024/04/13 03:38:49;;;;;;;;;;;;;;;16.21;57.48;101619.09;5350891;26;1847;-58
2024/04/13 03:41:14;;;;;;;;;;;;;;;16.08;57.23;101629.31;5350869;26;1165;-56
2024/04/13 03:43:40;;;;;;;;;;;;;;;16.08;57.59;101623.84;5350817;26;1291;-56
2024/04/13 03:46:05;;;;;;;;;;;;;;;17.37;57.50;101628.34;5351178;26;1172;-55
2024/04/13 03:48:31;;;;;;;;;;;;;;;17.25;57.34;101630.41;5350729;26;1148;-55
2024/04/13 03:50:56;;;;;;;;;;;;;;;16.62;57.92;101627.97;5350259;26;1223;-57
2024/04/13 03:53:22;;;;;;;;;;;;;;;16.40;57.77;101639.72;5350603;26;1149;-56
2024/04/13 03:55:47;;;;;;;;;;;;;;;16.23;57.45;101636.16;5350863;26;1177;-53
2024/04/13 03:58:13;;;;;;;;;;;;;;;16.05;57.54;101640.81;5350406;26;1860;-53
2024/04/13 04:00:38;;;;;;;;;;;;;;;16.49;58.47;101642.84;5349651;26;1091;-53
2024/04/13 04:03:04;;;;;;;;;;;;;;;17.78;56.53;101638.94;5350738;26;1223;-53
2024/04/13 04:05:29;;;;;;;;;;;;;;;16.95;57.94;101650.94;5350770;26;1278;-56
2024/04/13 04:07:55;;;;;;;;;;;;;;;17.68;56.45;101630.59;5350636;26;1180;-54
2024/04/13 04:10:21;;;;;;;;;;;;;;;16.87;55.76;101643.09;5350273;26;1270;-53
2024/04/13 04:12:47;;;;;;;;;;;;;;;16.63;53.33;101646.06;5350403;26;1096;-55
2024/04/13 04:15:12;;;;;;;;;;;;;;;17.40;55.47;101641.59;5350655;26;1207;-54
2024/04/13 04:17:38;;;;;;;;;;;;;;;16.80;54.30;101645.22;5350452;26;1853;-54
2024/04/13 04:20:05;;;;;;;;;;;;;;;16.53;52.80;101640.44;5350436;26;1330;-55
2024/04/13 04:22:32;;;;;;;;;;;;;;;16.58;52.66;101641.34;5350096;26;1584;-50
2024/04/13 04:24:57;;;;;;;;;;;;;;;17.05;54.21;101640.06;5348593;26;1390;-54
2024/04/13 04:27:23;;;;;;;;;;;;;;;16.71;53.25;101642.91;5349080;26;1239;-52
2024/04/13 04:29:48;;;;;;;;;;;;;;;18.07;54.63;101630.44;5348878;26;1389;-53
2024/04/13 04:32:14;;;;;;;;;;;;;;;17.17;54.61;101636.38;5348279;26;1428;-53
2024/04/13 04:34:39;;;;;;;;;;;;;;;16.89;52.87;101640.97;5347860;26;1631;-52
2024/04/13 04:37:05;;;;;;;;;;;;;;;16.75;51.22;101641.31;5344980;26;1884;-53
2024/04/13 04:39:30;;;;;;;;;;;;;;;17.50;53.06;101640.03;5347466;26;1394;-53
2024/04/13 04:41:56;;;;;;;;;;;;;;;16.84;52.54;101641.69;5346510;26;1524;-51
2024/04/13 04:44:21;;;;;;;;;;;;;;;16.64;51.33;101650.50;5346648;26;1353;-51
2024/04/13 04:46:47;;;;;;;;;;;;;;;17.47;52.41;101657.06;5347024;26;2651;-52
2024/04/13 04:49:12;;;;;;;;;;;;;;;17.12;52.84;101650.88;5345632;26;1056;-53
2024/04/13 04:51:38;;;;;;;;;;;;;;;16.84;51.46;101651.84;5341044;26;1286;-52
2024/04/13 04:54:03;;;;;;;;;;;;;;;17.69;52.37;101644.09;5344352;26;1508;-51
2024/04/13 04:56:30;;;;;;;;;;;;;;;17.00;52.03;101645.53;5344925;26;1225;-49
2024/04/13 04:58:56;;;;;;;;;;;;;;;16.79;50.63;101652.63;5349009;26;1859;-53
2024/04/13 05:01:21;;;;;;;;;;;;;;;16.95;50.67;101653.69;5333853;26;1273;-54
2024/04/13 05:03:47;;;;;;;;;;;;;;;17.51;52.03;101648.03;5326933;26;1270;-51
2024/04/13 05:06:12;;;;;;;;;;;;;;;16.92;51.31;101655.03;5336213;26;1501;-53
2024/04/13 05:08:38;;;;;;;;;;;;;;;16.63;50.44;101659.81;5326905;26;1295;-51
2024/04/13 05:11:04;;;;;;;;;;;;;;;16.58;49.70;101651.50;5345237;26;1807;-53
2024/04/13 05:13:29;;;;;;;;;;;;;;;17.32;50.66;101657.69;5351858;26;1180;-52
2024/04/13 05:15:56;;;;;;;;;;;;;;;16.79;50.52;101651.78;5352136;26;1211;-53
2024/04/13 05:18:21;;;;;;;;;;;;;;;16.62;49.67;101644.44;5352894;26;2819;-51
2024/04/13 05:20:47;;;;;;;;;;;;;;;17.56;50.81;101647.28;5352543;26;1275;-56
2024/04/13 05:23:12;;;;;;;;;;;;;;;16.94;51.17;101649.28;5351998;26;1210;-54
2024/04/13 05:25:40;;;;;;;;;;;;;;;16.73;50.34;101648.97;5351859;26;1060;-56
2024/04/13 05:28:05;;;;;;;;;;;;;;;16.56;49.72;101651.78;5352101;26;1411;-54
2024/04/13 05:30:31;;;;;;;;;;;;;;;16.80;49.72;101647.94;5352230;26;1132;-54
2024/04/13 05:32:56;;;;;;;;;;;;;;;17.33;50.89;101651.13;5350800;26;1472;-53
2024/04/13 05:35:22;;;;;;;;;;;;;;;16.84;50.51;101649.13;5350840;26;1414;-54
2024/04/13 05:37:47;;;;;;;;;;;;;;;16.73;49.20;101654.47;5348365;26;1858;-54
2024/04/13 05:40:13;;;;;;;;;;;;;;;17.84;50.60;101651.66;5349984;26;1398;-54
2024/04/13 05:42:39;;;;;;;;;;;;;;;17.02;50.96;101651.56;5349361;26;1556;-54
2024/04/13 05:45:04;;;;;;;;;;;;;;;16.78;50.14;101656.44;5351569;26;1203;-50
2024/04/13 05:47:30;;;;;;;;;;;;;;;17.47;50.81;101654.31;5354767;26;2919;-53
2024/04/13 05:49:55;;;;;;;;;;;;;;;17.25;50.99;101656.00;5349219;26;1378;-53
2024/04/13 05:52:21;;;;;;;;;;;;;;;16.84;50.16;101654.59;5351119;26;1478;-52
2024/04/13 05:54:46;;;;;;;;;;;;;;;16.66;49.64;101656.56;5351386;26;1235;-51
2024/04/13 05:57:12;;;;;;;;;;;;;;;16.72;48.77;101657.47;5352329;26;1826;-52
2024/04/13 05:59:38;;;;;;;;;;;;;;;16.63;48.68;101657.06;5352107;26;1314;-55
2024/04/13 06:02:04;;;;;;;;;;;;;;;17.49;50.41;101668.63;5348062;26;1321;-53
2024/04/13 06:04:29;;;;;;;;;;;;;;;16.87;50.52;101665.09;5330170;26;1211;-55
2024/04/13 06:06:55;;;;;;;;;;;;;;;16.81;49.31;101660.63;5329529;26;1182;-54
2024/04/13 06:09:20;;;;;;;;;;;;;;;16.71;48.57;101659.38;5351855;26;1144;-54
2024/04/13 06:11:46;;;;;;;;;;;;;;;16.47;48.08;101644.22;5352181;26;1149;-53
2024/04/13 06:14:11;;;;;;;;;;;;;;;17.43;49.55;101662.22;5351217;26;1070;-52
2024/04/13 06:16:37;;;;;;;;;;;;;;;16.82;49.72;101663.09;5351706;26;2665;-50
2024/04/13 06:19:03;;;;;;;;;;;;;;;16.67;48.97;101657.41;5351645;26;1847;-54
2024/04/13 06:21:28;;;;;;;;;;;;;;;16.60;48.33;101660.31;5351858;26;1258;-52
2024/04/13 06:23:54;;;;;;;;;;;;;;;16.52;47.81;101652.50;5351685;26;1195;-54
2024/04/13 06:26:19;;;;;;;;;;;;;;;17.72;49.14;101660.06;5351279;26;1129;-54
2024/04/13 06:28:45;;;;;;;;;;;;;;;16.90;49.88;101650.84;5351468;26;1176;-54
2024/04/13 06:31:11;;;;;;;;;;;;;;;16.69;49.37;101647.81;5351612;26;1243;-55
2024/04/13 06:33:36;;;;;;;;;;;;;;;16.54;48.77;101651.16;5351243;26;1434;-53
2024/04/13 06:36:02;;;;;;;;;;;;;;;16.47;48.27;101647.78;5351314;26;1275;-52
2024/04/13 06:38:27;;;;;;;;;;;;;;;17.56;49.92;101661.03;5350908;26;1825;-53
2024/04/13 06:40:53;;;;;;;;;;;;;;;16.90;50.15;101656.34;5351438;26;1125;-53
2024/04/13 06:43:19;;;;;;;;;;;;;;;16.73;49.11;101653.63;5328395;26;1270;-53
2024/04/13 06:45:45;;;;;;;;;;;;;;;17.43;49.87;101648.47;5350891;26;1097;-50
2024/04/13 06:48:10;;;;;;;;;;;;;;;17.09;49.98;101652.22;5318150;26;2994;-52
2024/04/13 06:50:36;;;;;;;;;;;;;;;16.79;49.15;101654.53;5350188;26;1133;-51
2024/04/13 06:53:01;;;;;;;;;;;;;;;16.63;48.89;101654.31;5350961;26;1136;-51
2024/04/13 06:55:27;;;;;;;;;;;;;;;16.63;48.07;101654.31;5351136;26;1161;-52
2024/04/13 06:57:52;;;;;;;;;;;;;;;16.53;47.85;101654.16;5350649;26;1814;-53
2024/04/13 07:00:18;;;;;;;;;;;;;;;17.18;49.02;101655.38;5350886;26;1160;-52
2024/04/13 07:02:47;;;;;;;;;;;;;;;17.25;49.98;101656.00;5350372;26;1286;-52
2024/04/13 07:05:12;;;;;;;;;;;;;;;16.74;49.80;101645.13;5350736;26;1161;-54
2024/04/13 07:07:39;;;;;;;;;;;;;;;16.70;48.93;101656.88;5351237;26;1136;-54
2024/04/13 07:10:05;;;;;;;;;;;;;;;16.50;48.55;101654.69;5350867;26;1165;-50
2024/04/13 07:12:31;;;;;;;;;;;;;;;17.59;49.29;101661.31;5350211;26;1275;-53
2024/04/13 07:14:56;;;;;;;;;;;;;;;16.72;50.06;101647.31;5350924;26;1298;-54
2024/04/13 07:17:22;;;;;;;;;;;;;;;16.70;49.15;101651.38;5320147;26;2669;-52
2024/04/13 07:19:47;;;;;;;;;;;;;;;16.82;49.54;101663.09;5350556;26;1171;-52
2024/04/13 07:22:13;;;;;;;;;;;;;;;17.36;49.87;101651.47;5350525;26;1507;-54
2024/04/13 07:24:38;;;;;;;;;;;;;;;16.97;49.44;101654.28;5350358;26;1278;-53
2024/04/13 07:27:04;;;;;;;;;;;;;;;16.64;49.11;101645.00;5349471;26;1129;-52
2024/04/13 07:29:30;;;;;;;;;;;;;;;16.70;48.30;101646.72;5350720;26;1155;-49
2024/04/13 07:31:55;;;;;;;;;;;;;;;16.60;47.86;101646.59;5350552;26;1169;-54
2024/04/13 07:34:21;;;;;;;;;;;;;;;16.54;47.96;101647.59;5350519;26;1339;-52
2024/04/13 07:36:46;;;;;;;;;;;;;;;17.68;49.34;101634.16;5349812;26;1869;-53
2024/04/13 07:39:12;;;;;;;;;;;;;;;16.89;49.99;101630.00;5350515;26;1161;-53
2024/04/13 07:41:38;;;;;;;;;;;;;;;16.79;49.17;101627.91;5350160;26;1290;-52
2024/04/13 07:44:03;;;;;;;;;;;;;;;16.64;48.60;101624.94;5350134;26;1169;-50
2024/04/13 07:46:29;;;;;;;;;;;;;;;16.55;48.16;101619.03;5350452;26;2682;-53
2024/04/13 07:48:55;;;;;;;;;;;;;;;16.60;47.90;101627.38;5349956;26;1346;-53
2024/04/13 07:51:20;;;;;;;;;;;;;;;17.52;49.38;101621.38;5350435;26;1213;-54
2024/04/13 07:53:46;;;;;;;;;;;;;;;16.84;49.87;101621.66;5350725;26;1127;-54
2024/04/13 07:56:11;;;;;;;;;;;;;;;16.75;48.89;101608.34;5350626;26;1346;-54
2024/04/13 07:58:37;;;;;;;;;;;;;;;16.66;48.39;101620.88;5349075;26;1826;-52
2024/04/13 08:01:03;;;;;;;;;;;;;;;17.67;49.11;101613.28;5349782;26;1225;-54
2024/04/13 08:03:29;;;;;;;;;;;;;;;16.96;49.80;101608.66;5350110;26;1248;-54
2024/04/13 08:05:54;;;;;;;;;;;;;;;16.76;49.20;101606.44;5349995;26;1456;-51
2024/04/13 08:08:20;;;;;;;;;;;;;;;16.67;48.45;101605.22;5336336;26;1428;-52
2024/04/13 08:10:46;;;;;;;;;;;;;;;16.63;47.75;101612.31;5321447;26;1296;-55
2024/04/13 08:13:12;;;;;;;;;;;;;;;16.91;48.45;101612.19;5339182;26;1285;-55
2024/04/13 08:15:40;;;;;;;;;;;;;;;16.98;49.38;101605.66;5349826;26;1316;-53
2024/04/13 08:18:06;;;;;;;;;;;;;;;16.77;48.69;101599.84;5349722;26;2530;-52
2024/04/13 08:20:31;;;;;;;;;;;;;;;17.31;49.28;101604.66;5319265;26;1221;-54
2024/04/13 08:22:57;;;;;;;;;;;;;;;17.24;49.60;101601.28;5349422;26;1393;-53
2024/04/13 08:25:23;;;;;;;;;;;;;;;16.91;49.29;101612.19;5349163;26;1243;-53
2024/04/13 08:27:49;;;;;;;;;;;;;;;16.70;48.85;101599.22;5323692;26;1247;-52
2024/04/13 08:30:14;;;;;;;;;;;;;;;16.79;48.81;101596.84;5321322;26;1199;-54
2024/04/13 08:32:40;;;;;;;;;;;;;;;17.41;49.60;101592.94;5340904;26;1274;-56
2024/04/13 08:35:06;;;;;;;;;;;;;;;16.99;49.42;101597.13;5342664;26;1508;-56
2024/04/13 08:37:32;;;;;;;;;;;;;;;16.84;48.72;101589.50;5338952;26;1863;-56
2024/04/13 08:39:57;;;;;;;;;;;;;;;17.36;49.11;101590.97;5338948;26;1214;-54
2024/04/13 08:42:26;;;;;;;;;;;;;;;17.08;49.63;101592.88;5342471;26;1265;-53
2024/04/13 08:44:54;;;;;;;;;;;;;;;16.90;49.17;101587.69;5349520;26;1293;-50
2024/04/13 08:47:20;;;;;;;;;;;;;;;16.88;48.28;101595.31;5354003;26;2571;-53
2024/04/13 08:49:47;;;;;;;;;;;;;;;16.72;48.06;101589.63;5349114;26;1496;-53
2024/04/13 08:52:13;;;;;;;;;;;;;;;16.71;47.74;101585.22;5319502;26;1382;-52
2024/04/13 08:54:38;;;;;;;;;;;;;;;17.59;48.91;101576.06;5319067;26;1461;-56
2024/04/13 08:57:06;;;;;;;;;;;;;;;17.09;49.09;101582.69;5321728;26;1829;-48
2024/04/13 08:59:33;;;;;;;;;;;;;;;16.89;48.55;101577.78;5315727;26;1219;-55
2024/04/13 09:01:58;;;;;;;;;;;;;;;16.74;48.26;101573.72;5328372;26;1414;-51
2024/04/13 09:04:24;;;;;;;;;;;;;;;17.41;48.73;101570.94;5337310;26;1271;-54
2024/04/13 09:06:50;;;;;;;;;;;;;;;17.43;49.72;101564.09;5318594;26;1228;-54
2024/04/13 09:09:15;;;;;;;;;;;;;;;17.03;49.35;101570.00;5319086;26;1350;-56
2024/04/13 09:11:41;;;;;;;;;;;;;;;17.04;48.50;101571.63;5348932;26;1156;-56
2024/04/13 09:14:07;;;;;;;;;;;;;;;17.52;49.78;101569.13;5317407;26;1529;-54
2024/04/13 09:16:32;;;;;;;;;;;;;;;16.97;49.84;101571.84;5346683;26;2186;-53
2024/04/13 09:18:59;;;;;;;;;;;;;;;16.93;48.85;101560.53;5332747;26;1822;-53
2024/04/13 09:21:26;;;;;;;;;;;;;;;16.90;48.29;101568.44;5348637;26;1397;-55
2024/04/13 09:23:51;;;;;;;;;;;;;;;16.76;47.99;101563.31;5347825;26;1394;-55
2024/04/13 09:26:17;;;;;;;;;;;;;;;17.89;48.67;101547.16;5348672;26;1398;-55
2024/04/13 09:28:42;;;;;;;;;;;;;;;17.12;49.47;101551.13;5346370;26;1401;-52
2024/04/13 09:31:08;;;;;;;;;;;;;;;17.05;48.70;101552.13;5347357;26;1487;-55
2024/04/13 09:33:34;;;;;;;;;;;;;;;16.86;48.54;101554.38;5343677;26;1363;-55
2024/04/13 09:36:00;;;;;;;;;;;;;;;16.71;48.07;101551.44;5345585;26;1484;-56
2024/04/13 09:38:25;;;;;;;;;;;;;;;17.86;48.64;101544.09;5341825;26;1860;-55
2024/04/13 09:41:01;;;;;;;;;;;;;;;17.14;49.44;101543.44;5344251;26;1370;-55
2024/04/13 09:43:26;;;;;;;;;;;;;;;16.98;48.73;101553.44;5340940;26;1438;-53
2024/04/13 09:45:59;;;;;;;;;;;;;;;16.89;48.12;101555.81;5348787;26;1434;-55
2024/04/13 09:48:24;;;;;;;;;;;;;;;16.83;47.82;101554.91;5345736;26;2065;-53
2024/04/13 09:50:50;;;;;;;;;;;;;;;17.78;48.62;101549.00;5347420;26;1468;-54
2024/04/13 09:53:17;;;;;;;;;;;;;;;17.18;49.10;101539.94;5341247;26;1417;-53
2024/04/13 09:55:42;;;;;;;;;;;;;;;16.94;48.68;101539.38;5321131;26;1509;-54
2024/04/13 09:58:08;;;;;;;;;;;;;;;16.92;48.23;101530.56;5338310;26;1841;-50
2024/04/13 10:00:33;;;;;;;;;;;;;;;16.86;47.83;101540.66;5320329;26;1371;-55
2024/04/13 10:02:59;;;;;;;;;;;;;;;16.70;47.58;101531.38;5337145;26;1301;-54
2024/04/13 10:05:24;;;;;;;;;;;;;;;16.63;47.47;101535.41;5349948;26;1424;-51
2024/04/13 10:07:50;;;;;;;;;;;;;;;16.59;47.35;101540.56;5344072;26;1210;-52
2024/04/13 10:10:16;;;;;;;;;;;;;;;16.81;47.47;101534.25;5350670;26;1176;-53
2024/04/13 10:12:42;;;;;;;;;;;;;;;17.64;48.78;101528.50;5314487;26;1141;-54
2024/04/13 10:15:08;;;;;;;;;;;;;;;17.06;49.27;101534.56;5345786;26;1236;-52
2024/04/13 10:17:35;;;;;;;;;;;;;;;16.84;48.98;101533.75;5314960;27;3113;-54
2024/04/13 10:20:00;;;;;;;;;;;;;;;16.77;48.33;101529.28;5317068;26;1184;-53
2024/04/13 10:22:27;;;;;;;;;;;;;;;16.74;47.65;101517.97;5351539;26;1248;-55
2024/04/13 10:24:52;;;;;;;;;;;;;;;16.66;47.50;101518.41;5351777;26;1132;-53
2024/04/13 10:27:20;;;;;;;;;;;;;;;17.49;48.36;101520.97;5351490;26;1302;-51
2024/04/13 10:29:48;;;;;;;;;;;;;;;17.16;49.13;101513.78;5351519;26;1157;-54
2024/04/13 10:32:13;;;;;;;;;;;;;;;16.90;48.76;101527.25;5351468;26;1153;-56
2024/04/13 10:34:39;;;;;;;;;;;;;;;16.81;48.31;101512.28;5349620;26;1715;-54
2024/04/13 10:37:04;;;;;;;;;;;;;;;16.69;47.97;101520.66;5348995;26;1822;-51
2024/04/13 10:39:30;;;;;;;;;;;;;;;17.75;48.49;101505.53;5326713;26;1199;-52
2024/04/13 10:41:55;;;;;;;;;;;;;;;17.02;49.34;101508.69;5324515;26;1304;-50
2024/04/13 10:44:25;;;;;;;;;;;;;;;16.90;48.72;101508.84;5330986;26;1536;-55
2024/04/13 10:46:51;;;;;;;;;;;;;;;17.68;48.77;101502.16;5350897;26;2687;-55
2024/04/13 10:49:17;;;;;;;;;;;;;;;17.02;49.30;101505.13;5351423;26;1208;-55
2024/04/13 10:51:44;;;;;;;;;;;;;;;16.94;48.76;101495.41;5350935;26;1174;-54
2024/04/13 10:54:12;;;;;;;;;;;;;;;16.94;47.88;101495.41;5351313;26;1215;-53
2024/04/13 10:56:38;;;;;;;;;;;;;;;17.96;48.30;101505.69;5344404;26;1061;-51
2024/04/13 10:59:07;;;;;;;;;;;;;;;17.17;49.44;101498.97;5351159;26;1845;-54
2024/04/13 11:01:32;;;;;;;;;;;;;;;17.01;48.73;101498.81;5349725;26;1175;-51
2024/04/13 11:04:05;;;;;;;;;;;;;;;16.88;48.27;101508.28;5350816;26;1143;-53
2024/04/13 11:06:30;;;;;;;;;;;;;;;16.84;47.87;101514.50;5321153;26;1374;-54
2024/04/13 11:08:56;;;;;;;;;;;;;;;16.74;47.60;101491.34;5350858;26;1227;-53
2024/04/13 11:11:21;;;;;;;;;;;;;;;16.74;47.07;101515.22;5350838;26;1208;-54
2024/04/13 11:13:47;;;;;;;;;;;;;;;17.75;47.84;101505.53;5320272;26;1301;-52
2024/04/13 11:16:13;;;;;;;;;;;;;;;17.07;48.69;101506.00;5319803;26;2754;-53
2024/04/13 11:18:39;;;;;;;;;;;;;;;16.86;48.19;101493.13;5314611;26;1859;-52
2024/04/13 11:21:04;;;;;;;;;;;;;;;16.89;47.64;101492.63;5350563;26;1089;-53
2024/04/13 11:23:34;;;;;;;;;;;;;;;16.68;47.34;101499.78;5349720;26;1493;-53
2024/04/13 11:25:59;;;;;;;;;;;;;;;16.68;47.06;101494.28;5350268;26;1339;-53
2024/04/13 11:28:25;;;;;;;;;;;;;;;16.53;47.16;101500.44;5321440;26;1161;-51
2024/04/13 11:30:51;;;;;;;;;;;;;;;17.51;48.08;101494.03;5350500;26;1105;-55
2024/04/13 11:33:17;;;;;;;;;;;;;;;16.86;48.49;101491.19;5350222;26;1181;-55
2024/04/13 11:36:03;;;;;;;;;;;;;;;16.84;47.91;101479.63;5350474;26;1370;-54
2024/04/13 11:38:30;;;;;;;;;;;;;;;16.74;47.42;101485.84;5330156;26;2086;-55
2024/04/13 11:40:56;;;;;;;;;;;;;;;16.61;47.08;101489.00;5320032;26;1282;-55
2024/04/13 11:43:21;;;;;;;;;;;;;;;16.50;47.15;101496.28;5350912;26;1155;-55
2024/04/13 11:45:48;;;;;;;;;;;;;;;16.90;47.13;101497.03;5350408;26;1322;-53
2024/04/13 11:48:14;;;;;;;;;;;;;;;17.35;48.27;101484.00;5350083;26;2929;-54
2024/04/13 11:50:39;;;;;;;;;;;;;;;16.91;48.51;101479.47;5349674;26;1124;-54
2024/04/13 11:53:05;;;;;;;;;;;;;;;17.61;48.60;101482.28;5314482;27;1263;-54
2024/04/13 11:55:31;;;;;;;;;;;;;;;17.21;49.18;101478.13;5342508;26;1242;-54
2024/04/13 11:57:57;;;;;;;;;;;;;;;16.86;48.69;101473.91;5350248;26;1825;-55
2024/04/13 12:00:23;;;;;;;;;;;;;;;16.75;48.10;101473.78;5350221;26;1294;-51
2024/04/13 12:02:49;;;;;;;;;;;;;;;17.07;48.14;101466.72;5349902;26;1120;-57
2024/04/13 12:05:14;;;;;;;;;;;;;;;17.22;48.79;101469.63;5350297;26;1278;-55
2024/04/13 12:07:40;;;;;;;;;;;;;;;16.92;48.67;101473.69;5348675;26;1132;-56
2024/04/13 12:10:07;;;;;;;;;;;;;;;16.82;47.71;101475.50;5350150;26;1227;-54
2024/04/13 12:12:32;;;;;;;;;;;;;;;16.72;47.63;101473.47;5349924;26;1215;-55
2024/04/13 12:14:58;;;;;;;;;;;;;;;17.86;48.33;101478.06;5349598;26;1331;-50
2024/04/13 12:17:23;;;;;;;;;;;;;;;17.07;49.10;101477.72;5349921;26;2851;-56
2024/04/13 12:19:49;;;;;;;;;;;;;;;16.90;48.45;101469.56;5349990;26;1248;-51
2024/04/13 12:22:14;;;;;;;;;;;;;;;16.79;48.02;101465.84;5349910;26;1366;-55
2024/04/13 12:24:40;;;;;;;;;;;;;;;16.74;47.32;101474.03;5349764;26;1143;-50
2024/04/13 12:27:05;;;;;;;;;;;;;;;16.82;47.30;101464.53;5348041;26;1566;-51
2024/04/13 12:29:31;;;;;;;;;;;;;;;17.51;48.63;101457.47;5338991;26;1578;-49
2024/04/13 12:31:57;;;;;;;;;;;;;;;16.99;48.62;101453.44;5327833;26;1212;-51
2024/04/13 12:34:22;;;;;;;;;;;;;;;16.90;47.96;101458.56;5330604;26;1289;-50
2024/04/13 12:36:48;;;;;;;;;;;;;;;16.80;47.28;101461.19;5343555;26;1533;-51
2024/04/13 12:39:16;;;;;;;;;;;;;;;17.96;48.09;101464.41;5338964;26;1834;-53
2024/04/13 12:41:45;;;;;;;;;;;;;;;17.21;49.01;101461.63;5328136;26;1445;-52